Lincoln Hwy 8

*Note: All times are displayed in the local standard time of the station location.
**Rain - Equipment is designed to accurately record liquid precipitation; under conditions when precipitation is not in liquid form, the data displayed may not properly reflect rainfall values.

Date Max Temp
(°C)
Min Temp
(°C)
Avg Temp
(°C)
Rain (mm) Avg RH (%)
Mon, Aug 20, 2018 25.8 15.6 20.9 0.0 89.1
Sun, Aug 19, 2018 24.6 15.8 20.3 0.0 86.3
Sat, Aug 18, 2018 23.6 16.5 20.9 20.6 85.0
Fri, Aug 17, 2018 30.7 21.9 24.6 5.0 86.2
Thu, Aug 16, 2018 32.7 20.8 25.9 1.6 73.9
Wed, Aug 15, 2018 32.7 20.5 26.1 0.0 64.9
Tue, Aug 14, 2018 31.6 20.4 25.1 0.0 61.5
DateTime Avg Temp (°C) Rain (mm) RH (%)
Tue, Aug 21, 2018 06:00 21.0 0.0 86.5
Tue, Aug 21, 2018 05:00 21.2 0.0 85.8
Tue, Aug 21, 2018 04:00 21.1 0.0 85.3
Tue, Aug 21, 2018 03:00 21.0 0.0 85.3
Tue, Aug 21, 2018 02:00 21.1 0.0 85.0
Tue, Aug 21, 2018 01:00 21.1 0.0 85.0
Tue, Aug 21, 2018 00:00 21.4 0.0 83.3
Mon, Aug 20, 2018 23:00 21.2 0.0 84.8
Mon, Aug 20, 2018 22:00 20.2 0.0 97.0
Mon, Aug 20, 2018 21:00 21.2 0.0 95.3
Mon, Aug 20, 2018 20:00 23.3 0.0 87.5
Mon, Aug 20, 2018 19:00 24.1 0.0 83.8
Mon, Aug 20, 2018 18:00 24.4 0.0 82.0
Mon, Aug 20, 2018 17:00 24.4 0.0 80.5
Mon, Aug 20, 2018 16:00 24.7 0.0 77.8
Mon, Aug 20, 2018 15:00 24.7 0.0 78.5
Mon, Aug 20, 2018 14:00 24.3 0.0 78.5
Mon, Aug 20, 2018 13:00 24.5 0.0 78.0
Mon, Aug 20, 2018 12:00 24.9 0.0 74.8
Mon, Aug 20, 2018 11:00 23.9 0.0 78.3
Mon, Aug 20, 2018 10:00 21.6 0.0 85.0
Mon, Aug 20, 2018 09:00 20.3 0.0 95.5
Mon, Aug 20, 2018 08:00 18.1 0.0 100.0
Mon, Aug 20, 2018 07:00 16.0 0.0 100.0
Mon, Aug 20, 2018 06:00 16.1 0.0 100.0
Mon, Aug 20, 2018 05:00 16.0 0.0 100.0
Mon, Aug 20, 2018 04:00 16.1 0.0 99.8
Mon, Aug 20, 2018 03:00 16.9 0.0 99.5
Mon, Aug 20, 2018 02:00 17.0 0.0 99.3
Mon, Aug 20, 2018 01:00 17.5 0.0 99.0
Mon, Aug 20, 2018 00:00 17.8 0.0 98.0
Sun, Aug 19, 2018 23:00 17.8 0.0 97.8
Sun, Aug 19, 2018 22:00 17.7 0.0 96.3
Sun, Aug 19, 2018 21:00 19.1 0.0 90.3
Sun, Aug 19, 2018 20:00 21.8 0.0 77.5
Sun, Aug 19, 2018 19:00 22.8 0.0 74.8
Sun, Aug 19, 2018 18:00 23.4 0.0 73.0
Sun, Aug 19, 2018 17:00 24.0 0.0 70.3
Sun, Aug 19, 2018 16:00 24.4 0.0 70.3
Sun, Aug 19, 2018 15:00 24.5 0.0 70.8
Sun, Aug 19, 2018 14:00 24.5 0.0 73.8
Sun, Aug 19, 2018 13:00 24.1 0.0 74.5
Sun, Aug 19, 2018 12:00 23.9 0.0 74.3
Sun, Aug 19, 2018 11:00 23.8 0.0 73.3
Sun, Aug 19, 2018 10:00 23.5 0.0 75.0
Sun, Aug 19, 2018 09:00 21.3 0.0 88.5
Sun, Aug 19, 2018 08:00 18.4 0.0 100.0
Sun, Aug 19, 2018 07:00 16.2 0.0 100.0


asterix Register now to access more data! asterix